sensor_id;sensor_type;location;lat;lon;timestamp;temperature;humidity
6879;DHT22;3478;51.462;7.338;2024-02-21T00:02:31;8.60;99.90
6879;DHT22;3478;51.462;7.338;2024-02-21T00:07:33;8.60;99.90
6879;DHT22;3478;51.462;7.338;2024-02-21T00:12:37;8.50;99.90
6879;DHT22;3478;51.462;7.338;2024-02-21T00:17:40;8.60;99.90
6879;DHT22;3478;51.462;7.338;2024-02-21T00:22:42;8.60;99.90
6879;DHT22;3478;51.462;7.338;2024-02-21T00:27:53;8.60;99.90
6879;DHT22;3478;51.462;7.338;2024-02-21T00:32:55;8.50;99.90
6879;DHT22;3478;51.462;7.338;2024-02-21T00:37:57;8.50;99.90
6879;DHT22;3478;51.462;7.338;2024-02-21T00:43:03;8.50;99.90
6879;DHT22;3478;51.462;7.338;2024-02-21T00:48:06;8.50;99.90
6879;DHT22;3478;51.462;7.338;2024-02-21T00:53:08;8.50;99.90
6879;DHT22;3478;51.462;7.338;2024-02-21T00:58:12;8.50;99.90
6879;DHT22;3478;51.462;7.338;2024-02-21T01:03:14;8.50;99.90
6879;DHT22;3478;51.462;7.338;2024-02-21T01:08:15;8.50;99.90
6879;DHT22;3478;51.462;7.338;2024-02-21T01:13:21;8.50;99.90
6879;DHT22;3478;51.462;7.338;2024-02-21T01:18:23;8.50;99.90
6879;DHT22;3478;51.462;7.338;2024-02-21T01:23:26;8.50;99.90
6879;DHT22;3478;51.462;7.338;2024-02-21T01:28:29;8.50;99.90
6879;DHT22;3478;51.462;7.338;2024-02-21T01:33:31;8.50;99.90
6879;DHT22;3478;51.462;7.338;2024-02-21T01:38:35;8.50;99.90
6879;DHT22;3478;51.462;7.338;2024-02-21T01:43:38;8.50;99.90
6879;DHT22;3478;51.462;7.338;2024-02-21T01:48:40;8.50;99.90
6879;DHT22;3478;51.462;7.338;2024-02-21T01:53:43;8.40;99.90
6879;DHT22;3478;51.462;7.338;2024-02-21T01:58:48;8.40;99.90
6879;DHT22;3478;51.462;7.338;2024-02-21T02:03:51;8.40;99.90
6879;DHT22;3478;51.462;7.338;2024-02-21T02:08:53;8.40;99.90
6879;DHT22;3478;51.462;7.338;2024-02-21T02:13:57;8.40;99.90
6879;DHT22;3478;51.462;7.338;2024-02-21T02:18:59;8.40;99.90
6879;DHT22;3478;51.462;7.338;2024-02-21T02:24:03;8.40;99.90
6879;DHT22;3478;51.462;7.338;2024-02-21T02:29:05;8.50;99.90
6879;DHT22;3478;51.462;7.338;2024-02-21T02:34:07;8.50;99.90
6879;DHT22;3478;51.462;7.338;2024-02-21T02:39:11;8.40;99.90
6879;DHT22;3478;51.462;7.338;2024-02-21T02:44:14;8.40;99.90
6879;DHT22;3478;51.462;7.338;2024-02-21T02:49:17;8.40;99.90
6879;DHT22;3478;51.462;7.338;2024-02-21T02:54:20;8.40;99.90
6879;DHT22;3478;51.462;7.338;2024-02-21T02:59:23;8.40;99.90
6879;DHT22;3478;51.462;7.338;2024-02-21T03:04:25;8.40;99.90
6879;DHT22;3478;51.462;7.338;2024-02-21T03:09:28;8.30;99.90
6879;DHT22;3478;51.462;7.338;2024-02-21T03:14:30;8.30;99.90
6879;DHT22;3478;51.462;7.338;2024-02-21T03:19:32;8.30;99.90
6879;DHT22;3478;51.462;7.338;2024-02-21T03:24:36;8.40;99.90
6879;DHT22;3478;51.462;7.338;2024-02-21T03:29:38;8.40;99.90
6879;DHT22;3478;51.462;7.338;2024-02-21T03:34:40;8.40;99.90
6879;DHT22;3478;51.462;7.338;2024-02-21T03:39:44;8.40;99.90
6879;DHT22;3478;51.462;7.338;2024-02-21T03:44:46;8.40;99.90
6879;DHT22;3478;51.462;7.338;2024-02-21T03:49:48;8.40;99.90
6879;DHT22;3478;51.462;7.338;2024-02-21T03:54:51;8.40;99.90
6879;DHT22;3478;51.462;7.338;2024-02-21T03:59:55;8.40;99.90
6879;DHT22;3478;51.462;7.338;2024-02-21T04:04:57;8.40;99.90
6879;DHT22;3478;51.462;7.338;2024-02-21T04:10:01;8.40;99.90
6879;DHT22;3478;51.462;7.338;2024-02-21T04:15:03;8.40;99.90
6879;DHT22;3478;51.462;7.338;2024-02-21T04:20:13;8.40;99.90
6879;DHT22;3478;51.462;7.338;2024-02-21T04:25:16;8.40;99.90
6879;DHT22;3478;51.462;7.338;2024-02-21T04:30:18;8.40;99.90
6879;DHT22;3478;51.462;7.338;2024-02-21T04:35:20;8.40;99.90
6879;DHT22;3478;51.462;7.338;2024-02-21T04:40:24;8.40;99.90
6879;DHT22;3478;51.462;7.338;2024-02-21T04:45:25;8.40;99.90
6879;DHT22;3478;51.462;7.338;2024-02-21T04:50:27;8.40;99.90
6879;DHT22;3478;51.462;7.338;2024-02-21T04:55:31;8.40;99.90
6879;DHT22;3478;51.462;7.338;2024-02-21T05:00:32;8.40;99.90
6879;DHT22;3478;51.462;7.338;2024-02-21T05:05:34;8.40;99.90
6879;DHT22;3478;51.462;7.338;2024-02-21T05:10:37;8.40;99.90
6879;DHT22;3478;51.462;7.338;2024-02-21T05:15:39;8.40;99.90
6879;DHT22;3478;51.462;7.338;2024-02-21T05:20:41;8.40;99.90
6879;DHT22;3478;51.462;7.338;2024-02-21T05:25:45;8.40;99.90
6879;DHT22;3478;51.462;7.338;2024-02-21T05:30:47;8.40;99.90
6879;DHT22;3478;51.462;7.338;2024-02-21T05:35:49;8.40;99.90
6879;DHT22;3478;51.462;7.338;2024-02-21T05:40:52;8.40;99.90
6879;DHT22;3478;51.462;7.338;2024-02-21T05:45:54;8.40;99.90
6879;DHT22;3478;51.462;7.338;2024-02-21T05:50:56;8.40;99.90
6879;DHT22;3478;51.462;7.338;2024-02-21T05:55:59;8.40;99.90
6879;DHT22;3478;51.462;7.338;2024-02-21T06:01:02;8.40;99.90
6879;DHT22;3478;51.462;7.338;2024-02-21T06:06:04;8.40;99.90
6879;DHT22;3478;51.462;7.338;2024-02-21T06:11:08;8.40;99.90
6879;DHT22;3478;51.462;7.338;2024-02-21T06:16:09;8.40;99.90
6879;DHT22;3478;51.462;7.338;2024-02-21T06:21:11;8.40;99.90
6879;DHT22;3478;51.462;7.338;2024-02-21T06:26:15;8.40;99.90
6879;DHT22;3478;51.462;7.338;2024-02-21T06:31:16;8.40;99.90
6879;DHT22;3478;51.462;7.338;2024-02-21T06:36:19;8.40;99.90
6879;DHT22;3478;51.462;7.338;2024-02-21T06:41:22;8.40;99.90
6879;DHT22;3478;51.462;7.338;2024-02-21T06:46:24;8.50;99.90
6879;DHT22;3478;51.462;7.338;2024-02-21T06:51:27;8.50;99.90
6879;DHT22;3478;51.462;7.338;2024-02-21T06:56:30;8.50;99.90
6879;DHT22;3478;51.462;7.338;2024-02-21T07:01:32;8.50;99.90
6879;DHT22;3478;51.462;7.338;2024-02-21T07:06:34;8.50;99.90
6879;DHT22;3478;51.462;7.338;2024-02-21T07:11:37;8.60;99.90
6879;DHT22;3478;51.462;7.338;2024-02-21T07:16:39;8.60;99.90
6879;DHT22;3478;51.462;7.338;2024-02-21T07:21:41;8.60;99.90
6879;DHT22;3478;51.462;7.338;2024-02-21T07:26:44;8.60;99.90
6879;DHT22;3478;51.462;7.338;2024-02-21T07:31:46;8.60;99.90
6879;DHT22;3478;51.462;7.338;2024-02-21T07:36:49;8.60;99.90
6879;DHT22;3478;51.462;7.338;2024-02-21T07:41:52;8.70;99.90
6879;DHT22;3478;51.462;7.338;2024-02-21T07:46:54;8.80;99.90
6879;DHT22;3478;51.462;7.338;2024-02-21T07:51:56;8.90;99.90
6879;DHT22;3478;51.462;7.338;2024-02-21T07:56:59;8.80;99.90
6879;DHT22;3478;51.462;7.338;2024-02-21T08:02:01;8.90;99.90
6879;DHT22;3478;51.462;7.338;2024-02-21T08:07:07;8.90;99.90
6879;DHT22;3478;51.462;7.338;2024-02-21T08:12:10;9.00;99.90
6879;DHT22;3478;51.462;7.338;2024-02-21T08:17:12;9.00;99.90
6879;DHT22;3478;51.462;7.338;2024-02-21T08:22:14;8.90;99.90
6879;DHT22;3478;51.462;7.338;2024-02-21T08:27:17;9.00;99.90
6879;DHT22;3478;51.462;7.338;2024-02-21T08:32:19;9.00;99.90
6879;DHT22;3478;51.462;7.338;2024-02-21T08:37:21;9.10;99.90
6879;DHT22;3478;51.462;7.338;2024-02-21T08:42:24;9.10;99.90
6879;DHT22;3478;51.462;7.338;2024-02-21T08:47:26;9.20;99.90
6879;DHT22;3478;51.462;7.338;2024-02-21T08:52:28;9.20;99.90
6879;DHT22;3478;51.462;7.338;2024-02-21T08:57:31;9.10;99.90
6879;DHT22;3478;51.462;7.338;2024-02-21T09:02:37;9.00;99.90
6879;DHT22;3478;51.462;7.338;2024-02-21T09:07:39;9.00;99.90
6879;DHT22;3478;51.462;7.338;2024-02-21T09:12:42;8.90;99.90
6879;DHT22;3478;51.462;7.338;2024-02-21T09:17:45;8.80;99.90
6879;DHT22;3478;51.462;7.338;2024-02-21T09:22:47;8.70;99.90
6879;DHT22;3478;51.462;7.338;2024-02-21T09:27:50;8.70;99.90
6879;DHT22;3478;51.462;7.338;2024-02-21T09:32:52;8.80;99.90
6879;DHT22;3478;51.462;7.338;2024-02-21T09:37:54;8.80;99.90
6879;DHT22;3478;51.462;7.338;2024-02-21T09:43:02;8.80;99.90
6879;DHT22;3478;51.462;7.338;2024-02-21T09:48:26;8.80;99.90
6879;DHT22;3478;51.462;7.338;2024-02-21T09:53:31;8.70;99.90
6879;DHT22;3478;51.462;7.338;2024-02-21T09:58:35;8.60;99.90
6879;DHT22;3478;51.462;7.338;2024-02-21T10:03:37;8.70;99.90
6879;DHT22;3478;51.462;7.338;2024-02-21T10:08:40;8.80;99.90
6879;DHT22;3478;51.462;7.338;2024-02-21T10:13:43;8.70;99.90
6879;DHT22;3478;51.462;7.338;2024-02-21T10:18:46;8.70;99.90
6879;DHT22;3478;51.462;7.338;2024-02-21T10:23:49;8.70;99.90
6879;DHT22;3478;51.462;7.338;2024-02-21T10:28:52;8.60;99.90
6879;DHT22;3478;51.462;7.338;2024-02-21T10:33:56;8.70;99.90
6879;DHT22;3478;51.462;7.338;2024-02-21T10:38:58;8.70;99.90
6879;DHT22;3478;51.462;7.338;2024-02-21T10:44:04;8.80;99.90
6879;DHT22;3478;51.462;7.338;2024-02-21T10:49:10;8.80;99.90
6879;DHT22;3478;51.462;7.338;2024-02-21T10:54:26;8.90;99.90
6879;DHT22;3478;51.462;7.338;2024-02-21T10:59:32;9.10;99.90
6879;DHT22;3478;51.462;7.338;2024-02-21T11:04:37;9.50;99.90
6879;DHT22;3478;51.462;7.338;2024-02-21T11:09:51;9.60;99.90
6879;DHT22;3478;51.462;7.338;2024-02-21T11:15:03;9.60;99.90
6879;DHT22;3478;51.462;7.338;2024-02-21T11:20:12;9.50;99.90
6879;DHT22;3478;51.462;7.338;2024-02-21T11:25:21;9.50;99.90
6879;DHT22;3478;51.462;7.338;2024-02-21T11:30:30;9.70;99.90
6879;DHT22;3478;51.462;7.338;2024-02-21T11:35:34;9.90;99.90
6879;DHT22;3478;51.462;7.338;2024-02-21T11:40:38;10.10;99.90
6879;DHT22;3478;51.462;7.338;2024-02-21T11:45:42;10.10;99.90
6879;DHT22;3478;51.462;7.338;2024-02-21T11:50:53;10.30;99.90
6879;DHT22;3478;51.462;7.338;2024-02-21T11:55:55;10.50;99.90
6879;DHT22;3478;51.462;7.338;2024-02-21T12:00:58;10.40;99.90
6879;DHT22;3478;51.462;7.338;2024-02-21T12:06:03;10.40;99.90
6879;DHT22;3478;51.462;7.338;2024-02-21T12:11:16;10.40;99.90
6879;DHT22;3478;51.462;7.338;2024-02-21T12:16:21;10.30;99.90
6879;DHT22;3478;51.462;7.338;2024-02-21T12:21:30;10.50;99.90
6879;DHT22;3478;51.462;7.338;2024-02-21T12:26:33;10.60;99.90
6879;DHT22;3478;51.462;7.338;2024-02-21T12:31:39;10.70;99.90
6879;DHT22;3478;51.462;7.338;2024-02-21T12:36:44;10.70;99.90
6879;DHT22;3478;51.462;7.338;2024-02-21T12:41:47;10.50;99.90
6879;DHT22;3478;51.462;7.338;2024-02-21T12:46:51;10.60;99.90
6879;DHT22;3478;51.462;7.338;2024-02-21T12:51:54;10.80;99.90
6879;DHT22;3478;51.462;7.338;2024-02-21T12:56:57;10.60;99.90
6879;DHT22;3478;51.462;7.338;2024-02-21T13:02:05;10.90;99.90
6879;DHT22;3478;51.462;7.338;2024-02-21T13:07:07;11.20;99.90
6879;DHT22;3478;51.462;7.338;2024-02-21T13:12:10;11.20;99.90
6879;DHT22;3478;51.462;7.338;2024-02-21T13:17:22;11.30;99.90
6879;DHT22;3478;51.462;7.338;2024-02-21T13:22:25;11.40;99.90
6879;DHT22;3478;51.462;7.338;2024-02-21T13:27:27;11.30;99.90
6879;DHT22;3478;51.462;7.338;2024-02-21T13:32:30;11.30;99.90
6879;DHT22;3478;51.462;7.338;2024-02-21T13:37:32;11.50;99.90
6879;DHT22;3478;51.462;7.338;2024-02-21T13:42:35;11.60;99.90
6879;DHT22;3478;51.462;7.338;2024-02-21T13:47:38;11.60;99.90
6879;DHT22;3478;51.462;7.338;2024-02-21T13:52:40;11.50;99.90
6879;DHT22;3478;51.462;7.338;2024-02-21T13:57:43;11.70;99.90
6879;DHT22;3478;51.462;7.338;2024-02-21T14:02:47;11.50;99.90
6879;DHT22;3478;51.462;7.338;2024-02-21T14:07:49;11.50;99.90
6879;DHT22;3478;51.462;7.338;2024-02-21T14:12:51;11.40;99.90
6879;DHT22;3478;51.462;7.338;2024-02-21T14:17:54;11.50;99.90
6879;DHT22;3478;51.462;7.338;2024-02-21T14:22:56;11.50;99.90
6879;DHT22;3478;51.462;7.338;2024-02-21T14:28:03;11.30;99.90
6879;DHT22;3478;51.462;7.338;2024-02-21T14:33:07;11.20;99.90
6879;DHT22;3478;51.462;7.338;2024-02-21T14:38:09;11.10;99.90
6879;DHT22;3478;51.462;7.338;2024-02-21T14:43:11;11.20;99.90
6879;DHT22;3478;51.462;7.338;2024-02-21T14:48:14;11.30;99.90
6879;DHT22;3478;51.462;7.338;2024-02-21T14:53:16;11.20;99.90
6879;DHT22;3478;51.462;7.338;2024-02-21T14:58:18;11.10;99.90
6879;DHT22;3478;51.462;7.338;2024-02-21T15:03:22;11.00;99.90
6879;DHT22;3478;51.462;7.338;2024-02-21T15:08:28;11.00;99.90
6879;DHT22;3478;51.462;7.338;2024-02-21T15:13:30;11.00;99.90
6879;DHT22;3478;51.462;7.338;2024-02-21T15:18:33;10.90;99.90
6879;DHT22;3478;51.462;7.338;2024-02-21T15:23:38;10.80;99.90
6879;DHT22;3478;51.462;7.338;2024-02-21T15:34:09;10.70;99.90
6879;DHT22;3478;51.462;7.338;2024-02-21T15:39:11;10.70;99.90
6879;DHT22;3478;51.462;7.338;2024-02-21T15:44:14;10.70;99.90
6879;DHT22;3478;51.462;7.338;2024-02-21T15:49:22;10.60;99.90
6879;DHT22;3478;51.462;7.338;2024-02-21T15:54:24;10.50;99.90
6879;DHT22;3478;51.462;7.338;2024-02-21T15:59:27;10.50;99.90
6879;DHT22;3478;51.462;7.338;2024-02-21T16:04:33;10.40;99.90
6879;DHT22;3478;51.462;7.338;2024-02-21T16:09:35;10.40;99.90
6879;DHT22;3478;51.462;7.338;2024-02-21T16:14:37;10.40;99.90
6879;DHT22;3478;51.462;7.338;2024-02-21T16:19:40;10.40;99.90
6879;DHT22;3478;51.462;7.338;2024-02-21T16:24:42;10.30;99.90
6879;DHT22;3478;51.462;7.338;2024-02-21T16:29:44;10.30;99.90
6879;DHT22;3478;51.462;7.338;2024-02-21T16:34:47;10.30;99.90
6879;DHT22;3478;51.462;7.338;2024-02-21T16:39:49;10.30;99.90
6879;DHT22;3478;51.462;7.338;2024-02-21T16:44:53;10.30;99.90
6879;DHT22;3478;51.462;7.338;2024-02-21T16:49:56;10.20;99.90
6879;DHT22;3478;51.462;7.338;2024-02-21T16:54:59;10.10;99.90
6879;DHT22;3478;51.462;7.338;2024-02-21T17:00:01;9.90;99.90
6879;DHT22;3478;51.462;7.338;2024-02-21T17:05:07;9.80;99.90
6879;DHT22;3478;51.462;7.338;2024-02-21T17:10:10;9.60;99.90
6879;DHT22;3478;51.462;7.338;2024-02-21T17:15:14;9.50;99.90
6879;DHT22;3478;51.462;7.338;2024-02-21T17:20:23;9.40;99.90
6879;DHT22;3478;51.462;7.338;2024-02-21T17:25:45;9.30;99.90
6879;DHT22;3478;51.462;7.338;2024-02-21T17:30:49;9.40;99.90
6879;DHT22;3478;51.462;7.338;2024-02-21T17:35:53;9.30;99.90
6879;DHT22;3478;51.462;7.338;2024-02-21T17:40:55;9.30;99.90
6879;DHT22;3478;51.462;7.338;2024-02-21T17:46:00;9.20;99.90
6879;DHT22;3478;51.462;7.338;2024-02-21T17:51:04;9.10;99.90
6879;DHT22;3478;51.462;7.338;2024-02-21T17:56:06;9.10;99.90
6879;DHT22;3478;51.462;7.338;2024-02-21T18:01:08;9.00;99.90
6879;DHT22;3478;51.462;7.338;2024-02-21T18:06:12;9.00;99.90
6879;DHT22;3478;51.462;7.338;2024-02-21T18:11:14;8.90;99.90
6879;DHT22;3478;51.462;7.338;2024-02-21T18:16:16;8.90;99.90
6879;DHT22;3478;51.462;7.338;2024-02-21T18:21:19;8.70;99.90
6879;DHT22;3478;51.462;7.338;2024-02-21T18:26:21;8.70;99.90
6879;DHT22;3478;51.462;7.338;2024-02-21T18:31:23;8.60;99.90
6879;DHT22;3478;51.462;7.338;2024-02-21T18:36:26;8.50;99.90
6879;DHT22;3478;51.462;7.338;2024-02-21T18:41:28;8.40;99.90
6879;DHT22;3478;51.462;7.338;2024-02-21T18:46:30;8.30;99.90
6879;DHT22;3478;51.462;7.338;2024-02-21T18:51:33;8.20;99.90
6879;DHT22;3478;51.462;7.338;2024-02-21T18:56:35;8.20;99.90
6879;DHT22;3478;51.462;7.338;2024-02-21T19:01:37;8.20;99.90
6879;DHT22;3478;51.462;7.338;2024-02-21T19:06:40;8.10;99.90
6879;DHT22;3478;51.462;7.338;2024-02-21T19:11:43;8.10;99.90
6879;DHT22;3478;51.462;7.338;2024-02-21T19:16:45;8.10;99.90
6879;DHT22;3478;51.462;7.338;2024-02-21T19:21:49;8.10;99.90
6879;DHT22;3478;51.462;7.338;2024-02-21T19:26:51;8.10;99.90
6879;DHT22;3478;51.462;7.338;2024-02-21T19:31:53;8.20;99.90
6879;DHT22;3478;51.462;7.338;2024-02-21T19:36:57;8.10;99.90
6879;DHT22;3478;51.462;7.338;2024-02-21T19:41:59;8.10;99.90
6879;DHT22;3478;51.462;7.338;2024-02-21T19:47:01;8.00;99.90
6879;DHT22;3478;51.462;7.338;2024-02-21T19:52:05;8.00;99.90
6879;DHT22;3478;51.462;7.338;2024-02-21T19:57:07;8.10;99.90
6879;DHT22;3478;51.462;7.338;2024-02-21T20:02:09;8.00;99.90
6879;DHT22;3478;51.462;7.338;2024-02-21T20:07:13;8.00;99.90
6879;DHT22;3478;51.462;7.338;2024-02-21T20:12:16;8.10;99.90
6879;DHT22;3478;51.462;7.338;2024-02-21T20:17:18;8.00;99.90
6879;DHT22;3478;51.462;7.338;2024-02-21T20:22:21;8.00;99.90
6879;DHT22;3478;51.462;7.338;2024-02-21T20:27:23;8.10;99.90
6879;DHT22;3478;51.462;7.338;2024-02-21T20:32:25;8.00;99.90
6879;DHT22;3478;51.462;7.338;2024-02-21T20:37:29;8.00;99.90
6879;DHT22;3478;51.462;7.338;2024-02-21T20:42:31;8.00;99.90
6879;DHT22;3478;51.462;7.338;2024-02-21T20:47:33;8.00;99.90
6879;DHT22;3478;51.462;7.338;2024-02-21T20:52:38;8.00;99.90
6879;DHT22;3478;51.462;7.338;2024-02-21T20:57:40;7.90;99.90
6879;DHT22;3478;51.462;7.338;2024-02-21T21:02:42;7.90;99.90
6879;DHT22;3478;51.462;7.338;2024-02-21T21:07:46;7.90;99.90
6879;DHT22;3478;51.462;7.338;2024-02-21T21:12:48;7.90;99.90
6879;DHT22;3478;51.462;7.338;2024-02-21T21:17:50;7.90;99.90
6879;DHT22;3478;51.462;7.338;2024-02-21T21:22:54;7.90;99.90
6879;DHT22;3478;51.462;7.338;2024-02-21T21:27:57;8.00;99.90
6879;DHT22;3478;51.462;7.338;2024-02-21T21:32:59;8.00;99.90
6879;DHT22;3478;51.462;7.338;2024-02-21T21:38:03;8.00;99.90
6879;DHT22;3478;51.462;7.338;2024-02-21T21:43:05;8.00;99.90
6879;DHT22;3478;51.462;7.338;2024-02-21T21:48:07;8.00;99.90
6879;DHT22;3478;51.462;7.338;2024-02-21T21:53:11;8.10;99.90
6879;DHT22;3478;51.462;7.338;2024-02-21T21:58:12;8.10;99.90
6879;DHT22;3478;51.462;7.338;2024-02-21T22:03:14;8.10;99.90
6879;DHT22;3478;51.462;7.338;2024-02-21T22:08:18;8.10;99.90
6879;DHT22;3478;51.462;7.338;2024-02-21T22:13:20;8.10;99.90
6879;DHT22;3478;51.462;7.338;2024-02-21T22:18:22;8.10;99.90
6879;DHT22;3478;51.462;7.338;2024-02-21T22:23:26;8.10;99.90
6879;DHT22;3478;51.462;7.338;2024-02-21T22:28:28;8.10;99.90
6879;DHT22;3478;51.462;7.338;2024-02-21T22:33:30;8.10;99.90
6879;DHT22;3478;51.462;7.338;2024-02-21T22:38:33;8.10;99.90
6879;DHT22;3478;51.462;7.338;2024-02-21T22:43:35;8.10;99.90
6879;DHT22;3478;51.462;7.338;2024-02-21T22:48:37;8.10;99.90
6879;DHT22;3478;51.462;7.338;2024-02-21T22:53:41;8.10;99.90
6879;DHT22;3478;51.462;7.338;2024-02-21T22:58:43;8.10;99.90
6879;DHT22;3478;51.462;7.338;2024-02-21T23:03:45;8.10;99.90
6879;DHT22;3478;51.462;7.338;2024-02-21T23:08:49;8.10;99.90
6879;DHT22;3478;51.462;7.338;2024-02-21T23:13:51;8.10;99.90
6879;DHT22;3478;51.462;7.338;2024-02-21T23:18:53;8.20;99.90
6879;DHT22;3478;51.462;7.338;2024-02-21T23:23:56;8.20;99.90
6879;DHT22;3478;51.462;7.338;2024-02-21T23:28:58;8.20;99.90
6879;DHT22;3478;51.462;7.338;2024-02-21T23:34:00;8.20;99.90
6879;DHT22;3478;51.462;7.338;2024-02-21T23:39:03;8.30;99.90
6879;DHT22;3478;51.462;7.338;2024-02-21T23:44:06;8.30;99.90
6879;DHT22;3478;51.462;7.338;2024-02-21T23:49:08;8.30;99.90
6879;DHT22;3478;51.462;7.338;2024-02-21T23:54:12;8.30;99.90
6879;DHT22;3478;51.462;7.338;2024-02-21T23:59:14;8.30;99.90
